Time;durP1;ratioP1;P1;durP2;ratioP2;P2;SDS_P1;SDS_P2;PMS_P1;PMS_P2;Temp;Humidity;BMP_temperature;BMP_pressure;BME280_temperature;BME280_humidity;BME280_pressure;Samples;Min_cycle;Max_cycle;Signal;HPM_P1;HPM_P2
2023/08/08 00:00:39;;;;;;;0.73;0.68;;;;;;;;;;5072841;28;20397;-71
2023/08/08 00:03:05;;;;;;;1.35;0.68;;;;;;;;;;5072739;28;20017;-70
2023/08/08 00:05:31;;;;;;;2.67;0.93;;;;;;;;;;5072891;28;20030;-71
2023/08/08 00:07:57;;;;;;;2.50;0.77;;;486.40;2380.80;;;;;;5072686;28;20059;-71
2023/08/08 00:10:23;;;;;;;2.80;0.70;;;461.60;2380.80;;;;;;5072947;28;20063;-71
2023/08/08 00:12:50;;;;;;;2.30;0.82;;;461.60;2380.80;;;;;;5075684;28;20086;-71
2023/08/08 00:15:15;;;;;;;2.90;0.82;;;461.70;2380.80;;;;;;5076891;28;20064;-71
2023/08/08 00:17:41;;;;;;;3.75;1.50;;;461.50;2380.80;;;;;;5076458;28;20052;-72
2023/08/08 00:20:08;;;;;;;5.78;1.00;;;461.50;2380.80;;;;;;5076755;28;20093;-71
2023/08/08 00:22:33;;;;;;;2.03;1.15;;;461.50;2380.80;;;;;;5076613;28;20021;-71
2023/08/08 00:24:59;;;;;;;2.85;0.80;;;461.40;2380.80;;;;;;5076957;28;20485;-70
2023/08/08 00:27:25;;;;;;;1.20;0.88;;;461.50;2380.80;;;;;;5076655;28;20070;-70
2023/08/08 00:29:52;;;;;;;0.70;0.63;;;461.50;2380.80;;;;;;5076623;28;20044;-70
2023/08/08 00:32:18;;;;;;;3.25;1.10;;;461.40;2380.80;;;;;;5058843;28;20103;-70
2023/08/08 00:34:44;;;;;;;0.82;0.60;;;461.40;2380.80;;;;;;5076620;28;20107;-70
2023/08/08 00:37:10;;;;;;;2.08;0.95;;;461.30;2380.80;;;;;;5076211;28;20474;-70
2023/08/08 00:39:35;;;;;;;3.67;1.13;;;461.20;2380.80;;;;;;5076411;28;20482;-74
2023/08/08 00:42:01;;;;;;;0.73;0.60;;;461.20;2380.80;;;;;;5076331;28;20062;-71
2023/08/08 00:44:27;;;;;;;7.05;1.27;;;461.30;2380.80;;;;;;5076244;28;20024;-69
2023/08/08 00:46:52;;;;;;;3.13;0.90;;;461.30;2380.80;;;;;;5076250;28;20468;-71
2023/08/08 00:49:18;;;;;;;1.17;0.77;;;461.20;2380.80;;;;;;5075871;28;20409;-69
2023/08/08 00:51:44;;;;;;;4.55;1.17;;;461.30;2380.80;;;;;;5058086;28;20458;-70
2023/08/08 00:54:10;;;;;;;4.10;1.42;;;461.30;2380.80;;;;;;5076112;28;20104;-70
2023/08/08 00:56:36;;;;;;;3.10;1.02;;;461.30;2380.80;;;;;;5075653;28;20032;-72
2023/08/08 00:59:02;;;;;;;2.65;1.25;;;461.30;2380.80;;;;;;5076113;28;20028;-70
2023/08/08 01:01:28;;;;;;;3.10;1.00;;;461.30;2380.80;;;;;;5076030;28;20070;-69
2023/08/08 01:03:54;;;;;;;4.50;1.40;;;461.40;2380.80;;;;;;5075928;28;20386;-71
2023/08/08 01:06:37;;;;;;;3.17;1.25;;;461.40;2380.80;;;;;;5075732;28;20035;-69
2023/08/08 01:09:16;;;;;;;1.73;1.00;;;461.40;2380.80;;;;;;5075926;28;20021;-70
2023/08/08 01:11:43;;;;;;;2.42;1.17;;;461.40;2380.80;;;;;;5075838;28;20020;-70
2023/08/08 01:14:10;;;;;;;2.00;0.90;;;461.40;2380.80;;;;;;5075827;28;20021;-71
2023/08/08 01:16:36;;;;;;;3.10;0.82;;;461.40;2380.80;;;;;;5075851;28;20024;-69
2023/08/08 01:19:06;;;;;;;4.95;1.52;;;461.40;2380.80;;;;;;5075366;28;20048;-71
2023/08/08 01:21:36;;;;;;;4.22;1.40;;;461.40;2380.80;;;;;;5075441;28;20032;-71
2023/08/08 01:24:18;;;;;;;1.30;0.90;;;461.30;2380.80;;;;;;5074713;28;20107;-70
2023/08/08 01:26:45;;;;;;;2.28;0.90;;;461.30;2380.80;;;;;;5075529;28;20100;-69
2023/08/08 01:29:11;;;;;;;2.42;0.90;;;461.40;2380.80;;;;;;5075330;28;20016;-71
2023/08/08 01:31:37;;;;;;;1.38;0.90;;;461.40;2380.80;;;;;;5075523;28;20096;-70
2023/08/08 01:34:03;;;;;;;2.90;0.85;;;461.40;2380.80;;;;;;5075204;28;20025;-71
2023/08/08 01:36:40;;;;;;;1.55;0.90;;;461.40;2380.80;;;;;;5075546;28;20559;-69
2023/08/08 01:39:10;;;;;;;3.22;1.58;;;461.40;2380.80;;;;;;5061860;28;20027;-70
2023/08/08 01:41:38;;;;;;;3.33;1.10;;;461.50;2380.80;;;;;;5075451;28;20024;-71
2023/08/08 01:44:05;;;;;;;2.85;1.30;;;461.40;2380.80;;;;;;5062240;28;20016;-70
2023/08/08 01:46:31;;;;;;;6.25;1.75;;;461.40;2380.80;;;;;;5074990;28;20024;-70
2023/08/08 01:48:59;;;;;;;5.22;1.35;;;461.50;2380.80;;;;;;5074636;28;20048;-70
2023/08/08 01:51:25;;;;;;;5.75;1.55;;;461.50;2380.80;;;;;;5075010;28;20540;-70
2023/08/08 01:53:51;;;;;;;3.15;1.50;;;461.50;2380.80;;;;;;5075127;28;20119;-71
2023/08/08 01:56:17;;;;;;;2.58;1.35;;;461.50;2380.80;;;;;;5074931;28;20070;-70
2023/08/08 01:58:42;;;;;;;2.97;1.40;;;461.50;2380.80;;;;;;5061529;28;20032;-69
2023/08/08 02:01:08;;;;;;;4.07;1.25;;;461.70;2380.80;;;;;;5074734;28;20039;-70
2023/08/08 02:03:34;;;;;;;1.80;1.30;;;461.60;2380.80;;;;;;5074457;28;20024;-70
2023/08/08 02:05:59;;;;;;;2.30;1.25;;;461.60;2380.80;;;;;;5074954;28;20529;-70
2023/08/08 02:08:25;;;;;;;1.63;1.15;;;461.60;2380.80;;;;;;5074660;28;20048;-70
2023/08/08 02:10:51;;;;;;;3.65;1.38;;;461.70;2380.80;;;;;;5074976;28;20028;-69
2023/08/08 02:13:16;;;;;;;1.48;1.05;;;461.70;2380.80;;;;;;5074494;28;20017;-70
2023/08/08 02:15:42;;;;;;;2.22;1.20;;;461.70;2380.80;;;;;;5074555;28;20067;-71
2023/08/08 02:18:09;;;;;;;2.80;1.38;;;461.70;2380.80;;;;;;5074163;28;20051;-71
2023/08/08 02:20:35;;;;;;;2.40;1.50;;;461.70;2380.80;;;;;;5074366;28;20036;-71
2023/08/08 02:23:01;;;;;;;1.30;1.13;;;461.70;2380.80;;;;;;5074426;28;20374;-72
2023/08/08 02:25:27;;;;;;;5.63;1.20;;;461.70;2380.80;;;;;;5074388;28;20028;-70
2023/08/08 02:27:52;;;;;;;4.85;1.10;;;461.70;2380.80;;;;;;5074328;28;20025;-70
2023/08/08 02:30:18;;;;;;;2.83;1.27;;;461.70;2380.80;;;;;;5074327;28;20056;-70
2023/08/08 02:32:44;;;;;;;4.18;1.27;;;461.70;2380.80;;;;;;5074060;28;20028;-70
2023/08/08 02:35:09;;;;;;;2.47;1.10;;;461.50;2380.80;;;;;;5074112;28;20036;-70
2023/08/08 02:37:35;;;;;;;1.65;1.20;;;461.60;2380.80;;;;;;5074299;28;20019;-70
2023/08/08 02:40:01;;;;;;;3.55;1.55;;;461.50;2380.80;;;;;;5074148;28;20028;-70
2023/08/08 02:42:26;;;;;;;2.17;0.98;;;461.70;2380.80;;;;;;5074063;28;20017;-71
2023/08/08 02:44:52;;;;;;;2.17;1.17;;;461.70;2380.80;;;;;;5074136;28;20039;-70
2023/08/08 02:47:18;;;;;;;1.50;1.15;;;461.70;2380.80;;;;;;5073672;28;20486;-71
2023/08/08 02:49:43;;;;;;;2.33;1.40;;;461.70;2380.80;;;;;;5073671;28;20075;-70
2023/08/08 02:52:09;;;;;;;3.15;1.25;;;461.60;2380.80;;;;;;5073948;28;20095;-70
2023/08/08 02:54:35;;;;;;;1.95;1.10;;;461.50;2380.80;;;;;;5073765;28;20017;-71
2023/08/08 02:57:00;;;;;;;1.33;0.98;;;461.50;2380.80;;;;;;5073808;28;20021;-71
2023/08/08 02:59:26;;;;;;;3.38;1.02;;;461.50;2380.80;;;;;;5073787;28;20032;-72
2023/08/08 03:01:52;;;;;;;1.85;1.00;;;461.50;2380.80;;;;;;5073550;28;20028;-70
2023/08/08 03:04:18;;;;;;;2.25;1.05;;;461.50;2380.80;;;;;;5073529;28;20111;-69
2023/08/08 03:06:43;;;;;;;10.10;1.38;;;461.50;2380.80;;;;;;5073476;28;20564;-71
2023/08/08 03:09:09;;;;;;;4.50;1.42;;;461.50;2380.80;;;;;;5073722;28;20034;-71
2023/08/08 03:11:37;;;;;;;2.65;1.52;;;461.50;2380.80;;;;;;5073528;28;20402;-72
2023/08/08 03:14:03;;;;;;;2.88;1.10;;;461.50;2380.80;;;;;;5073499;28;20157;-71
2023/08/08 03:16:28;;;;;;;4.25;1.23;;;461.50;2380.80;;;;;;5073342;28;20525;-70
2023/08/08 03:18:55;;;;;;;2.17;1.10;;;461.50;2380.80;;;;;;5055293;28;20394;-70
2023/08/08 03:21:20;;;;;;;2.42;1.40;;;461.50;2380.80;;;;;;5073220;28;20033;-69
2023/08/08 03:23:46;;;;;;;2.75;1.40;;;461.50;2380.80;;;;;;5073598;28;20396;-71
2023/08/08 03:26:12;;;;;;;1.08;0.98;;;461.50;2380.80;;;;;;5073256;28;20082;-71
2023/08/08 03:28:37;;;;;;;2.13;1.15;;;461.50;2380.80;;;;;;5073442;28;20021;-70
2023/08/08 03:31:03;;;;;;;2.30;1.25;;;461.50;2380.80;;;;;;5073346;28;20052;-70
2023/08/08 03:33:29;;;;;;;4.75;1.50;;;461.40;2380.80;;;;;;5073089;28;20386;-70
2023/08/08 03:35:54;;;;;;;2.13;1.20;;;461.40;2380.80;;;;;;5072965;28;20025;-69
2023/08/08 03:38:20;;;;;;;5.20;1.48;;;461.40;2380.80;;;;;;5073139;28;20038;-70
2023/08/08 03:40:46;;;;;;;2.50;1.30;;;461.40;2380.80;;;;;;5072876;28;20040;-71
2023/08/08 03:43:11;;;;;;;3.63;1.17;;;461.40;2380.80;;;;;;5073205;28;20045;-70
2023/08/08 03:45:37;;;;;;;3.47;1.30;;;461.50;2380.80;;;;;;5073086;28;20433;-70
2023/08/08 03:48:03;;;;;;;2.58;1.33;;;461.50;2380.80;;;;;;5072458;28;20033;-69
2023/08/08 03:50:29;;;;;;;7.90;1.75;;;461.40;2380.80;;;;;;5072706;28;20032;-70
2023/08/08 03:52:54;;;;;;;7.05;1.83;;;461.40;2380.80;;;;;;5073378;28;20016;-70
2023/08/08 03:55:20;;;;;;;3.60;1.50;;;461.40;2380.80;;;;;;5073011;28;20384;-70
2023/08/08 03:57:46;;;;;;;4.05;1.35;;;461.40;2380.80;;;;;;5073000;28;20041;-71
2023/08/08 04:00:12;;;;;;;5.90;1.63;;;461.50;2380.80;;;;;;5072766;28;20067;-70
2023/08/08 04:02:38;;;;;;;4.75;1.20;;;461.50;2380.80;;;;;;5072946;28;20051;-70
2023/08/08 04:05:04;;;;;;;4.18;1.50;;;461.40;2380.80;;;;;;5072632;28;20048;-71
2023/08/08 04:07:30;;;;;;;1.67;1.00;;;461.40;2380.80;;;;;;5072876;28;20020;-70
2023/08/08 04:09:56;;;;;;;4.13;1.52;;;461.20;2380.80;;;;;;5072835;28;20482;-72
2023/08/08 04:12:21;;;;;;;3.67;1.63;;;461.10;2380.80;;;;;;5072667;28;20525;-75
2023/08/08 04:14:47;;;;;;;4.32;2.03;;;461.10;2380.80;;;;;;5072810;28;20031;-72
2023/08/08 04:17:13;;;;;;;1.48;1.10;;;461.10;2380.80;;;;;;5072670;28;20056;-72
2023/08/08 04:19:38;;;;;;;4.30;1.55;;;461.20;2380.80;;;;;;5072579;28;20032;-70
2023/08/08 04:22:04;;;;;;;2.85;1.55;;;461.10;2380.80;;;;;;5072776;28;20363;-70
2023/08/08 04:24:30;;;;;;;2.72;1.17;;;461.10;2380.80;;;;;;5072599;28;20017;-73
2023/08/08 04:26:55;;;;;;;4.28;1.30;;;461.10;2380.80;;;;;;5072262;28;20028;-73
2023/08/08 04:29:21;;;;;;;2.78;1.50;;;461.20;2380.80;;;;;;5072593;28;20017;-73
2023/08/08 04:31:47;;;;;;;2.35;1.40;;;461.20;2380.80;;;;;;5054736;28;20519;-73
2023/08/08 04:34:12;;;;;;;2.47;1.35;;;461.20;2380.80;;;;;;5072576;28;20025;-72
2023/08/08 04:36:38;;;;;;;2.17;1.23;;;461.40;2380.80;;;;;;5054679;28;20032;-73
2023/08/08 04:39:04;;;;;;;3.45;1.65;;;461.30;2380.80;;;;;;5072350;28;20062;-73
2023/08/08 04:41:29;;;;;;;2.78;1.40;;;461.40;2380.80;;;;;;5069482;28;20112;-73
2023/08/08 04:43:55;;;;;;;2.95;1.35;;;461.40;2380.80;;;;;;5053706;28;20470;-74
2023/08/08 04:46:20;;;;;;;7.28;1.60;;;461.40;2380.80;;;;;;5071827;28;20428;-74
2023/08/08 04:48:46;;;;;;;3.95;1.42;;;461.30;2380.80;;;;;;5071680;28;20376;-73
2023/08/08 04:51:12;;;;;;;3.60;1.60;;;461.40;2380.80;;;;;;5071591;28;20029;-73
2023/08/08 04:53:38;;;;;;;4.85;1.50;;;461.30;2380.80;;;;;;5071694;28;20086;-72
2023/08/08 04:56:03;;;;;;;1.92;1.30;;;461.40;2380.80;;;;;;5071892;28;20043;-73
2023/08/08 04:58:29;;;;;;;2.38;1.58;;;461.40;2380.80;;;;;;5072551;28;20119;-73
2023/08/08 05:00:55;;;;;;;2.67;1.42;;;461.30;2380.80;;;;;;5075547;28;20040;-72
2023/08/08 05:03:21;;;;;;;3.55;1.60;;;461.40;2380.80;;;;;;5075098;28;20017;-72
2023/08/08 05:05:47;;;;;;;6.40;1.55;;;461.40;2380.80;;;;;;5075175;28;20024;-74
2023/08/08 05:08:16;;;;;;;2.85;1.55;;;461.50;2380.80;;;;;;5073313;28;20036;-74
2023/08/08 05:10:42;;;;;;;3.83;1.50;;;461.40;2380.80;;;;;;5075194;28;20039;-73
2023/08/08 05:13:08;;;;;;;5.15;1.60;;;461.50;2380.80;;;;;;5074707;28;20025;-73
2023/08/08 05:15:33;;;;;;;3.85;1.73;;;461.40;2380.80;;;;;;5074973;28;20389;-71
2023/08/08 05:17:59;;;;;;;3.22;2.00;;;461.40;2380.80;;;;;;5074909;28;20036;-72
2023/08/08 05:20:25;;;;;;;4.10;1.33;;;461.50;2380.80;;;;;;5074859;28;20041;-73
2023/08/08 05:22:51;;;;;;;2.83;1.38;;;461.50;2380.80;;;;;;5075019;28;20028;-72
2023/08/08 05:25:16;;;;;;;1.98;1.30;;;461.70;2380.80;;;;;;5074742;28;20177;-72
2023/08/08 05:27:42;;;;;;;5.32;1.80;;;461.70;2380.80;;;;;;5074969;28;20035;-73
2023/08/08 05:30:08;;;;;;;2.38;1.38;;;486.50;2380.80;;;;;;5074994;28;20028;-74
2023/08/08 05:32:34;;;;;;;3.55;1.75;;;486.50;2380.80;;;;;;5074785;28;20024;-73
2023/08/08 05:35:00;;;;;;;5.35;1.55;;;486.50;2380.80;;;;;;5064112;28;20486;-72
2023/08/08 05:37:26;;;;;;;3.53;1.10;;;486.70;2380.80;;;;;;5056270;28;20116;-72
2023/08/08 05:39:53;;;;;;;2.90;1.15;;;486.80;2380.80;;;;;;5073902;28;20041;-73
2023/08/08 05:42:19;;;;;;;2.13;1.25;;;486.70;2380.80;;;;;;5074517;28;20523;-72
2023/08/08 05:44:44;;;;;;;6.05;1.90;;;486.80;2380.80;;;;;;5073552;28;20107;-74
2023/08/08 05:47:11;;;;;;;4.22;1.55;;;486.80;2380.80;;;;;;5074305;28;20547;-74
2023/08/08 05:49:38;;;;;;;3.33;1.60;;;486.90;2380.80;;;;;;5072814;28;20051;-73
2023/08/08 05:52:04;;;;;;;3.28;1.52;;;487.00;2380.80;;;;;;5074254;28;20024;-73
2023/08/08 05:54:29;;;;;;;4.13;1.90;;;487.20;2380.80;;;;;;5071208;28;21662;-73
2023/08/08 05:56:55;;;;;;;5.25;1.88;;;487.20;2380.80;;;;;;5074346;28;20032;-74
2023/08/08 05:59:21;;;;;;;5.85;1.45;;;487.30;2380.80;;;;;;5074334;28;20366;-72
2023/08/08 06:01:46;;;;;;;2.50;1.40;;;487.20;2380.80;;;;;;5074221;28;20450;-73
2023/08/08 06:04:14;;;;;;;2.03;1.20;;;487.20;2380.80;;;;;;5074338;28;20025;-73
2023/08/08 06:06:39;;;;;;;4.90;2.08;;;487.20;2380.80;;;;;;5073951;28;20070;-72
2023/08/08 06:09:05;;;;;;;2.78;1.50;;;487.20;2380.80;;;;;;5074528;28;20021;-72
2023/08/08 06:11:31;;;;;;;4.78;1.63;;;487.20;2380.80;;;;;;5073180;28;20032;-73
2023/08/08 06:13:57;;;;;;;5.78;1.50;;;487.10;2380.80;;;;;;5073426;28;20024;-72
2023/08/08 06:16:22;;;;;;;6.40;1.67;;;487.00;2380.80;;;;;;5073742;28;20032;-72
2023/08/08 06:18:48;;;;;;;3.47;1.50;;;487.00;2380.80;;;;;;5073397;28;20032;-72
2023/08/08 06:21:14;;;;;;;2.53;1.20;;;487.00;2380.80;;;;;;5058883;28;20048;-72
2023/08/08 06:23:40;;;;;;;4.68;1.42;;;487.10;2380.80;;;;;;5073821;28;20386;-73
2023/08/08 06:26:06;;;;;;;2.70;1.38;;;487.20;2380.80;;;;;;5073503;28;20528;-71
2023/08/08 06:28:32;;;;;;;6.43;1.80;;;487.20;2380.80;;;;;;5073492;28;20032;-73
2023/08/08 06:31:01;;;;;;;3.67;1.60;;;512.00;2380.80;;;;;;5055901;28;20032;-74
2023/08/08 06:33:28;;;;;;;15.15;2.63;;;512.20;2380.80;;;;;;5073503;28;20031;-71
2023/08/08 06:35:55;;;;;;;27.95;5.50;;;512.40;2380.80;;;;;;5073993;28;20021;-73
2023/08/08 06:38:21;;;;;;;6.90;1.88;;;512.50;2380.80;;;;;;5073105;28;20024;-72
2023/08/08 06:40:46;;;;;;;3.85;1.50;;;512.60;2380.80;;;;;;5073201;28;20036;-75
2023/08/08 06:43:13;;;;;;;3.50;1.55;;;512.60;2380.80;;;;;;5071212;28;20104;-73
2023/08/08 06:45:39;;;;;;;9.90;2.63;;;512.50;2380.80;;;;;;5072629;28;20078;-73
2023/08/08 06:48:05;;;;;;;2.75;1.75;;;512.40;2380.80;;;;;;5072835;28;20020;-73
2023/08/08 06:50:31;;;;;;;3.45;1.55;;;512.40;2380.80;;;;;;5070286;28;20122;-73
2023/08/08 06:52:56;;;;;;;2.85;1.50;;;512.50;2380.80;;;;;;5072802;28;20491;-73
2023/08/08 06:55:22;;;;;;;4.80;1.48;;;512.60;2380.80;;;;;;5072824;28;20029;-74
2023/08/08 06:57:48;;;;;;;2.50;1.52;;;512.90;2355.20;;;;;;5073495;28;20035;-73
2023/08/08 07:00:15;;;;;;;3.42;1.70;;;537.70;2406.40;;;;;;5072758;28;20086;-74
2023/08/08 07:02:41;;;;;;;6.60;1.83;;;537.90;2355.20;;;;;;5072859;28;20028;-73
2023/08/08 07:05:09;;;;;;;3.90;1.60;;;538.10;2278.40;;;;;;5072849;28;20028;-74
2023/08/08 07:07:35;;;;;;;6.95;2.80;;;538.30;2304.00;;;;;;5072669;28;20024;-73
2023/08/08 07:10:02;;;;;;;4.20;2.17;;;538.40;2252.80;;;;;;5072339;28;20028;-73
2023/08/08 07:12:28;;;;;;;2.95;1.88;;;563.20;2278.40;;;;;;5072918;28;20033;-73
2023/08/08 07:14:54;;;;;;;6.55;2.10;;;563.30;2278.40;;;;;;5072517;28;20028;-71
2023/08/08 07:17:20;;;;;;;9.00;2.58;;;563.30;2201.60;;;;;;5055035;28;20050;-71
2023/08/08 07:19:45;;;;;;;2.92;1.73;;;563.50;2176.00;;;;;;5073046;28;20032;-74
2023/08/08 07:22:11;;;;;;;5.53;2.15;;;563.60;2227.20;;;;;;5071952;28;20052;-72
2023/08/08 07:24:38;;;;;;;3.45;2.00;;;563.60;2227.20;;;;;;5072755;28;20050;-72
2023/08/08 07:27:04;;;;;;;2.80;1.75;;;563.60;2150.40;;;;;;5072376;28;20466;-73
2023/08/08 07:29:30;;;;;;;5.70;2.03;;;563.30;2201.60;;;;;;5072607;28;20028;-73
2023/08/08 07:31:58;;;;;;;2.85;1.63;;;563.50;2201.60;;;;;;5070781;28;20393;-73
2023/08/08 07:34:24;;;;;;;4.30;1.80;;;563.60;2176.00;;;;;;5072526;28;20028;-72
2023/08/08 07:36:50;;;;;;;4.00;1.63;;;563.90;2124.80;;;;;;5065608;28;20115;-72
2023/08/08 07:39:16;;;;;;;3.25;1.65;;;564.10;2048.00;;;;;;5071298;28;20509;-72
2023/08/08 07:41:42;;;;;;;5.93;1.80;;;589.00;2073.60;;;;;;5072322;28;20109;-73
2023/08/08 07:44:07;;;;;;;4.28;1.80;;;589.10;2022.40;;;;;;5072392;28;20025;-72
2023/08/08 07:46:33;;;;;;;7.57;1.95;;;589.20;1971.20;;;;;;5054143;28;20028;-73
2023/08/08 07:49:03;;;;;;;5.53;2.08;;;589.20;1996.80;;;;;;5072179;28;20043;-72
2023/08/08 07:51:30;;;;;;;2.85;1.73;;;589.10;1971.20;;;;;;5069323;28;20053;-73
2023/08/08 07:53:56;;;;;;;3.13;1.70;;;589.20;1996.80;;;;;;5072476;28;20385;-73
2023/08/08 07:56:21;;;;;;;2.47;1.60;;;589.50;1971.20;;;;;;5072125;28;20021;-72
2023/08/08 07:58:47;;;;;;;3.47;2.03;;;589.70;1920.00;;;;;;5064228;28;20531;-73
2023/08/08 08:01:13;;;;;;;4.22;1.98;;;614.60;1920.00;;;;;;5072240;28;20482;-73
2023/08/08 08:03:39;;;;;;;5.72;1.90;;;614.80;1843.20;;;;;;5072319;28;20514;-73
2023/08/08 08:06:05;;;;;;;3.90;2.30;;;614.70;1868.80;;;;;;5072097;28;20025;-74
2023/08/08 08:08:31;;;;;;;3.90;1.90;;;589.70;1920.00;;;;;;5072955;28;20482;-72
2023/08/08 08:10:56;;;;;;;4.15;2.28;;;589.70;1868.80;;;;;;5072141;28;20029;-72
2023/08/08 08:13:22;;;;;;;4.00;1.55;;;589.70;1894.40;;;;;;5072215;28;20021;-73
2023/08/08 08:15:48;;;;;;;2.85;1.60;;;589.70;1843.20;;;;;;5072215;28;20032;-73
2023/08/08 08:18:16;;;;;;;3.53;1.88;;;589.70;1843.20;;;;;;5070605;28;20025;-74
2023/08/08 08:20:43;;;;;;;3.05;1.75;;;614.40;1817.60;;;;;;5072090;28;20033;-74
2023/08/08 08:23:09;;;;;;;2.13;1.52;;;614.60;1843.20;;;;;;5072534;28;20028;-73
2023/08/08 08:25:35;;;;;;;3.25;1.70;;;614.50;1792.00;;;;;;5071211;28;20124;-74
2023/08/08 08:28:01;;;;;;;4.10;1.70;;;614.80;1817.60;;;;;;5071948;28;20028;-74
2023/08/08 08:30:27;;;;;;;3.13;1.60;;;615.30;1715.20;;;;;;5068414;28;20061;-74
2023/08/08 08:32:53;;;;;;;3.00;1.70;;;640.50;1664.00;;;;;;5071909;28;20035;-74
2023/08/08 08:35:19;;;;;;;14.20;2.85;;;640.30;1740.80;;;;;;5057821;28;20030;-74
2023/08/08 08:37:44;;;;;;;4.45;1.60;;;615.30;1740.80;;;;;;5056963;28;20075;-74
2023/08/08 08:40:11;;;;;;;2.85;1.58;;;640.30;1689.60;;;;;;5075841;28;20040;-74
2023/08/08 08:42:38;;;;;;;3.03;1.80;;;640.60;1689.60;;;;;;5070043;28;20047;-74
2023/08/08 08:45:06;;;;;;;3.67;1.90;;;640.20;1689.60;;;;;;5075482;28;20688;-74
2023/08/08 08:47:32;;;;;;;7.13;2.22;;;640.20;1689.60;;;;;;5069949;28;20029;-74
2023/08/08 08:50:01;;;;;;;6.50;2.00;;;640.00;1715.20;;;;;;5069883;28;20094;-73
2023/08/08 08:52:26;;;;;;;4.88;1.90;;;615.20;1715.20;;;;;;5073834;28;20108;-75
2023/08/08 08:54:53;;;;;;;4.13;1.80;;;640.40;1689.60;;;;;;5073725;28;20534;-74
2023/08/08 08:57:21;;;;;;;3.40;1.80;;;665.60;1664.00;;;;;;5074781;28;20046;-73
2023/08/08 08:59:46;;;;;;;4.20;1.77;;;666.20;1612.80;;;;;;5074161;28;20090;-74
2023/08/08 09:02:12;;;;;;;7.75;2.03;;;666.10;1561.60;;;;;;5075100;28;20028;-73
2023/08/08 09:04:39;;;;;;;7.13;2.20;;;666.50;1587.20;;;;;;5074710;28;20478;-71
2023/08/08 09:07:07;;;;;;;7.25;4.28;;;666.20;1561.60;;;;;;5073941;28;20032;-74
2023/08/08 09:09:33;;;;;;;5.50;2.30;;;691.30;1536.00;;;;;;5074434;28;20103;-74
2023/08/08 09:11:59;;;;;;;3.67;1.77;;;691.30;1536.00;;;;;;5070000;28;20024;-74
2023/08/08 09:14:26;;;;;;;4.90;1.75;;;691.40;1510.40;;;;;;5070499;28;20028;-75
2023/08/08 09:16:53;;;;;;;4.32;1.85;;;691.30;1561.60;;;;;;5075034;28;20032;-74
2023/08/08 09:19:19;;;;;;;4.93;2.00;;;691.40;1510.40;;;;;;5074271;28;20539;-73
2023/08/08 09:21:46;;;;;;;3.20;1.67;;;691.40;1510.40;;;;;;5074746;28;20041;-74
2023/08/08 09:24:12;;;;;;;3.72;1.85;;;691.70;1484.80;;;;;;5074886;28;20033;-74
2023/08/08 09:26:39;;;;;;;7.70;2.08;;;691.20;1510.40;;;;;;5074912;28;20036;-74
2023/08/08 09:29:05;;;;;;;4.97;1.80;;;691.30;1510.40;;;;;;5074699;28;20027;-74
2023/08/08 09:31:33;;;;;;;4.03;1.95;;;691.50;1510.40;;;;;;5062969;28;20128;-76
2023/08/08 09:34:01;;;;;;;6.20;2.30;;;691.70;1484.80;;;;;;5074681;28;20020;-73
2023/08/08 09:36:27;;;;;;;7.72;1.98;;;692.10;1484.80;;;;;;5074614;28;20016;-73
2023/08/08 09:38:54;;;;;;;6.47;2.25;;;691.40;1484.80;;;;;;5075061;28;20032;-74
2023/08/08 09:41:24;;;;;;;4.38;2.00;;;691.70;1459.20;;;;;;5073345;28;20052;-75
2023/08/08 09:43:52;;;;;;;5.15;1.98;;;691.80;1459.20;;;;;;5073145;28;20031;-74
2023/08/08 09:46:22;;;;;;;4.93;2.30;;;691.90;1459.20;;;;;;5074013;28;20032;-74
2023/08/08 09:48:48;;;;;;;7.78;2.47;;;717.00;1408.00;;;;;;5074154;28;20052;-74
2023/08/08 09:51:14;;;;;;;3.42;1.73;;;717.00;1433.60;;;;;;5074602;28;20477;-73
2023/08/08 09:53:41;;;;;;;4.35;2.10;;;691.70;1433.60;;;;;;5056392;28;20504;-74
2023/08/08 09:56:07;;;;;;;5.20;1.80;;;692.10;1382.40;;;;;;5074369;28;20537;-74
2023/08/08 09:58:33;;;;;;;5.35;1.92;;;716.90;1408.00;;;;;;5074153;28;20463;-73
2023/08/08 10:01:00;;;;;;;4.38;2.08;;;;;;;;;;5074312;28;20044;-73
2023/08/08 10:03:26;;;;;;;3.78;1.88;;;717.40;1356.80;;;;;;5073203;28;20050;-76
2023/08/08 10:05:52;;;;;;;4.78;2.40;;;716.90;1408.00;;;;;;5074844;28;20028;-73
2023/08/08 10:08:19;;;;;;;5.32;1.98;;;717.10;1356.80;;;;;;5073922;28;20029;-73
2023/08/08 10:10:47;;;;;;;3.00;1.83;;;717.20;1382.40;;;;;;5073813;28;20028;-75
2023/08/08 10:13:24;;;;;;;6.45;2.40;;;717.20;1356.80;;;;;;5073957;28;20017;-77
2023/08/08 10:15:51;;;;;;;4.40;2.78;;;717.60;1408.00;;;;;;5071840;28;20028;-76
2023/08/08 10:18:17;;;;;;;4.28;1.63;;;716.80;1433.60;;;;;;5073815;28;20019;-75
2023/08/08 10:20:47;;;;;;;7.15;2.00;;;716.90;1433.60;;;;;;5073556;28;20120;-75
2023/08/08 10:23:18;;;;;;;5.25;2.70;;;717.40;1408.00;;;;;;5072234;28;20374;-75
2023/08/08 10:25:48;;;;;;;4.90;2.40;;;717.50;1331.20;;;;;;5070012;28;20024;-75
2023/08/08 10:28:17;;;;;;;5.18;2.03;;;716.90;1356.80;;;;;;5072874;28;20059;-73
2023/08/08 10:30:52;;;;;;;5.07;2.15;;;691.40;1382.40;;;;;;5073971;28;20025;-74
2023/08/08 10:33:22;;;;;;;6.90;1.98;;;692.10;1382.40;;;;;;5073478;28;20024;-74
2023/08/08 10:35:58;;;;;;;4.85;2.13;;;717.00;1408.00;;;;;;5073671;28;20500;-74
2023/08/08 10:38:24;;;;;;;;;;;717.50;1382.40;;;;;;5051954;28;20029;-74
2023/08/08 10:41:02;;;;;;;7.68;2.40;;;717.50;1331.20;;;;;;5073275;28;20314;-74
2023/08/08 10:43:31;;;;;;;7.68;2.28;;;717.10;1356.80;;;;;;5073325;28;20039;-74
2023/08/08 10:45:59;;;;;;;2.88;1.98;;;691.90;1408.00;;;;;;5072923;28;20033;-72
2023/08/08 10:48:26;;;;;;;4.85;2.33;;;691.80;1459.20;;;;;;5072333;28;20106;-73
2023/08/08 10:50:55;;;;;;;4.68;2.22;;;716.90;1433.60;;;;;;5071528;28;20020;-74
2023/08/08 10:53:26;;;;;;;2.92;1.73;;;691.60;1331.20;;;;;;5072138;28;20066;-75
2023/08/08 10:56:01;;;;;;;4.30;1.67;;;716.90;1331.20;;;;;;5072143;28;20028;-73
2023/08/08 10:58:38;;;;;;;5.90;1.98;;;717.40;1305.60;;;;;;5072717;28;20477;-73
2023/08/08 11:01:07;;;;;;;3.60;1.73;;;717.50;1280.00;;;;;;5069283;28;20185;-73
2023/08/08 11:03:36;;;;;;;4.88;2.10;;;717.70;1305.60;;;;;;5072683;28;20048;-74
2023/08/08 11:06:03;;;;;;;2.80;1.80;;;717.30;1356.80;;;;;;5072699;28;20099;-73
2023/08/08 11:08:31;;;;;;;4.63;1.88;;;692.00;1305.60;;;;;;5073101;28;20031;-74
2023/08/08 11:10:58;;;;;;;3.75;2.00;;;691.70;1382.40;;;;;;5072940;28;20060;-74
2023/08/08 11:13:23;;;;;;;4.93;2.10;;;716.80;1382.40;;;;;;5072707;28;20020;-75
2023/08/08 11:15:49;;;;;;;7.50;2.03;;;717.20;1331.20;;;;;;5072611;28;20032;-76
2023/08/08 11:18:15;;;;;;;5.68;1.90;;;717.50;1280.00;;;;;;5072463;28;20043;-74
2023/08/08 11:20:42;;;;;;;3.70;1.77;;;717.60;1254.40;;;;;;5072783;28;20123;-74
2023/08/08 11:23:10;;;;;;;6.40;2.10;;;742.60;1305.60;;;;;;5072597;28;20016;-74
2023/08/08 11:25:36;;;;;;;5.45;2.50;;;742.60;1280.00;;;;;;5072322;28;20490;-75
2023/08/08 11:28:03;;;;;;;4.78;2.05;;;742.70;1305.60;;;;;;5072596;28;20032;-74
2023/08/08 11:30:32;;;;;;;3.28;2.05;;;743.00;1280.00;;;;;;5072777;28;20048;-74
2023/08/08 11:32:59;;;;;;;4.85;2.05;;;743.10;1254.40;;;;;;5072481;28;20025;-74
2023/08/08 11:35:27;;;;;;;2.15;1.50;;;742.90;1305.60;;;;;;5071747;28;20052;-75
2023/08/08 11:37:54;;;;;;;4.78;2.40;;;743.10;1254.40;;;;;;5072301;28;20021;-74
2023/08/08 11:40:23;;;;;;;7.38;1.85;;;743.00;1228.80;;;;;;5072427;28;20553;-75
2023/08/08 11:42:51;;;;;;;3.50;1.70;;;743.00;1254.40;;;;;;5066590;28;20025;-73
2023/08/08 11:45:17;;;;;;;5.00;2.50;;;743.00;1228.80;;;;;;5071942;28;20024;-75
2023/08/08 11:47:43;;;;;;;4.03;1.90;;;742.70;1280.00;;;;;;5072317;28;20267;-75
2023/08/08 11:50:11;;;;;;;4.88;2.17;;;717.70;1228.80;;;;;;5072247;28;20436;-74
2023/08/08 11:52:41;;;;;;;2.80;1.90;;;742.80;1228.80;;;;;;5071978;28;20031;-74
2023/08/08 11:55:11;;;;;;;2.90;2.00;;;742.80;1331.20;;;;;;5071052;28;20029;-74
2023/08/08 11:57:38;;;;;;;5.47;1.92;;;743.00;1280.00;;;;;;5070808;28;20024;-76
2023/08/08 12:00:09;;;;;;;4.63;1.90;;;742.90;1280.00;;;;;;5072143;28;20031;-75
2023/08/08 12:02:35;;;;;;;3.60;1.98;;;743.10;1228.80;;;;;;5067604;28;20020;-74
2023/08/08 12:05:09;;;;;;;6.45;2.17;;;743.10;1228.80;;;;;;5072416;28;20044;-76
2023/08/08 12:07:35;;;;;;;4.13;2.08;;;743.10;1228.80;;;;;;5054299;28;20104;-74
2023/08/08 12:10:04;;;;;;;5.20;2.00;;;768.00;1203.20;;;;;;5076350;28;20016;-74
2023/08/08 12:12:35;;;;;;;6.80;2.35;;;768.10;1228.80;;;;;;5074236;28;20021;-75
2023/08/08 12:15:08;;;;;;;6.50;1.80;;;768.40;1177.60;;;;;;5076070;28;20032;-74